Time;durP1;ratioP1;P1;durP2;ratioP2;P2;SDS_P1;SDS_P2;PMS_P1;PMS_P2;Temp;Humidity;BMP_temperature;BMP_pressure;BME280_temperature;BME280_humidity;BME280_pressure;Samples;Min_cycle;Max_cycle;Signal;HPM_P1;HPM_P2
2023/10/25 00:00:58;;;;;;;;;;;15.80;91.10;;;;;;4142945;28;19998;-43
2023/10/25 00:03:39;;;;;;;;;;;15.80;91.10;;;;;;4138578;28;20049;-43
2023/10/25 00:06:22;;;;;;;;;;;15.80;91.00;;;;;;4136840;28;20015;-44
2023/10/25 00:09:03;;;;;;;;;;;15.80;91.10;;;;;;4148696;28;19933;-43
2023/10/25 00:11:44;;;;;;;;;;;15.80;91.10;;;;;;4123477;28;19936;-43
2023/10/25 00:14:24;;;;;;;;;;;15.80;91.10;;;;;;4150537;28;20274;-42
2023/10/25 00:17:05;;;;;;;;;;;15.80;91.20;;;;;;4153647;28;19932;-43
2023/10/25 00:19:46;;;;;;;;;;;15.80;91.20;;;;;;4154004;28;19956;-44
2023/10/25 00:22:28;;;;;;;;;;;15.80;91.10;;;;;;4154073;28;19932;-42
2023/10/25 00:25:09;;;;;;;;;;;15.90;91.50;;;;;;4137877;28;19936;-43
2023/10/25 00:27:50;;;;;;;;;;;15.80;90.90;;;;;;4138109;28;19952;-45
2023/10/25 00:30:30;;;;;;;;;;;15.90;91.00;;;;;;4142025;28;19936;-43
2023/10/25 00:33:11;;;;;;;;;;;15.90;91.20;;;;;;4154326;28;19955;-42
2023/10/25 00:35:52;;;;;;;;;;;16.00;90.80;;;;;;4146425;28;20016;-43
2023/10/25 00:38:35;;;;;;;;;;;16.00;90.70;;;;;;4138831;28;19936;-44
2023/10/25 00:41:15;;;;;;;;;;;16.00;90.60;;;;;;4137763;28;19936;-46
2023/10/25 00:43:56;;;;;;;;;;;16.10;90.50;;;;;;4135893;28;19937;-43
2023/10/25 00:46:37;;;;;;;;;;;16.10;90.40;;;;;;4152740;28;19932;-46
2023/10/25 00:49:18;;;;;;;;;;;16.20;90.30;;;;;;4139513;28;19990;-44
2023/10/25 00:51:59;;;;;;;;;;;16.20;90.30;;;;;;4136654;28;19936;-43
2023/10/25 00:54:42;;;;;;;;;;;16.20;90.40;;;;;;4154098;28;19983;-43
2023/10/25 00:57:24;;;;;;;;;;;16.20;90.40;;;;;;4167133;28;19948;-44
2023/10/25 01:00:06;;;;;;;;;;;16.20;90.40;;;;;;4155930;28;19932;-44
2023/10/25 01:02:47;;;;;;;;;;;16.20;90.40;;;;;;4157096;28;20018;-48
2023/10/25 01:05:28;;;;;;;;;;;16.20;90.40;;;;;;4140691;28;19931;-47
2023/10/25 01:08:09;;;;;;;;;;;16.20;90.20;;;;;;4155825;28;19935;-46
2023/10/25 01:10:52;;;;;;;;;;;16.20;90.30;;;;;;4166875;28;19936;-43
2023/10/25 01:13:32;;;;;;;;;;;16.30;90.30;;;;;;4142164;28;20056;-44
2023/10/25 01:16:13;;;;;;;;;;;16.30;90.30;;;;;;4156979;28;19938;-44
2023/10/25 01:18:55;;;;;;;;;;;16.30;90.20;;;;;;4158848;28;19936;-43
2023/10/25 01:21:36;;;;;;;;;;;16.30;90.10;;;;;;4155927;28;19932;-43
2023/10/25 01:24:18;;;;;;;;;;;16.30;90.20;;;;;;4166412;28;19932;-43
2023/10/25 01:26:59;;;;;;;;;;;16.30;90.20;;;;;;4156721;28;19932;-43
2023/10/25 01:29:39;;;;;;;;;;;16.40;90.10;;;;;;4154761;28;20004;-44
2023/10/25 01:32:21;;;;;;;;;;;16.40;90.00;;;;;;4154429;28;19978;-45
2023/10/25 01:35:01;;;;;;;;;;;16.40;90.00;;;;;;4154175;28;20440;-44
2023/10/25 01:37:42;;;;;;;;;;;16.40;90.10;;;;;;4156176;28;20082;-43
2023/10/25 01:40:25;;;;;;;;;;;16.40;90.10;;;;;;4156393;28;19932;-45
2023/10/25 01:43:06;;;;;;;;;;;16.40;90.10;;;;;;4166726;28;20298;-43
2023/10/25 01:45:47;;;;;;;;;;;16.40;90.10;;;;;;4165770;28;19932;-42
2023/10/25 01:48:29;;;;;;;;;;;16.40;90.00;;;;;;4154226;28;19947;-42
2023/10/25 01:51:11;;;;;;;;;;;16.40;90.00;;;;;;4156681;28;19951;-43
2023/10/25 01:53:52;;;;;;;;;;;16.30;90.00;;;;;;4155924;28;19936;-51
2023/10/25 01:56:34;;;;;;;;;;;16.40;90.10;;;;;;4155010;28;19932;-43
2023/10/25 01:59:15;;;;;;;;;;;16.40;90.10;;;;;;4159516;28;19933;-42
2023/10/25 02:01:56;;;;;;;;;;;16.30;89.70;;;;;;4155832;28;19932;-43
2023/10/25 02:04:38;;;;;;;;;;;16.40;89.80;;;;;;4140145;28;19963;-46
2023/10/25 02:07:18;;;;;;;;;;;16.40;89.90;;;;;;4140124;28;20432;-46
2023/10/25 02:09:58;;;;;;;;;;;16.40;89.90;;;;;;4138609;28;20341;-44
2023/10/25 02:12:41;;;;;;;;;;;16.40;90.20;;;;;;4155213;28;20397;-42
2023/10/25 02:15:22;;;;;;;;;;;16.40;90.20;;;;;;4156217;28;19967;-42
2023/10/25 02:18:02;;;;;;;;;;;16.40;89.80;;;;;;4138020;28;19936;-42
2023/10/25 02:20:43;;;;;;;;;;;16.40;90.20;;;;;;4124538;28;20011;-42
2023/10/25 02:23:24;;;;;;;;;;;16.40;89.80;;;;;;4139829;28;20400;-42
2023/10/25 02:26:04;;;;;;;;;;;16.40;89.80;;;;;;4141781;28;19959;-42
2023/10/25 02:28:46;;;;;;;;;;;16.40;89.60;;;;;;4152047;28;20421;-42
2023/10/25 02:31:27;;;;;;;;;;;16.50;89.60;;;;;;4144043;28;19940;-42
2023/10/25 02:34:10;;;;;;;;;;;16.50;89.40;;;;;;4155159;28;20062;-42
2023/10/25 02:36:51;;;;;;;;;;;16.40;89.20;;;;;;4139475;28;19936;-43
2023/10/25 02:39:32;;;;;;;;;;;16.40;89.50;;;;;;4153110;28;19936;-42
2023/10/25 02:42:13;;;;;;;;;;;16.40;89.40;;;;;;4155841;28;20006;-42
2023/10/25 02:44:55;;;;;;;;;;;16.40;89.70;;;;;;4154585;28;20003;-44
2023/10/25 02:47:36;;;;;;;;;;;16.40;89.40;;;;;;4165046;28;19968;-42
2023/10/25 02:50:17;;;;;;;;;;;16.40;89.50;;;;;;4165767;28;19978;-41
2023/10/25 02:52:58;;;;;;;;;;;16.40;89.30;;;;;;4156384;28;20489;-42
2023/10/25 02:55:39;;;;;;;;;;;16.40;90.20;;;;;;4153736;28;19932;-44
2023/10/25 02:58:20;;;;;;;;;;;16.40;89.60;;;;;;4155035;28;19932;-47
2023/10/25 03:01:02;;;;;;;;;;;16.40;89.20;;;;;;4145055;28;20152;-43
2023/10/25 03:03:43;;;;;;;;;;;16.50;89.20;;;;;;4140406;28;20464;-43
2023/10/25 03:06:24;;;;;;;;;;;16.50;89.10;;;;;;4154739;28;20067;-43
2023/10/25 03:09:05;;;;;;;;;;;16.50;88.60;;;;;;4140116;28;19985;-44
2023/10/25 03:11:46;;;;;;;;;;;16.50;89.00;;;;;;4137787;28;19978;-44
2023/10/25 03:14:26;;;;;;;;;;;16.40;89.10;;;;;;4148379;28;20064;-45
2023/10/25 03:17:09;;;;;;;;;;;16.40;89.20;;;;;;4139830;28;19933;-43
2023/10/25 03:19:49;;;;;;;;;;;16.40;89.00;;;;;;4145646;28;19940;-43
2023/10/25 03:22:30;;;;;;;;;;;16.50;89.10;;;;;;4153265;28;20015;-42
2023/10/25 03:25:11;;;;;;;;;;;16.40;89.00;;;;;;4139716;28;19936;-43
2023/10/25 03:27:52;;;;;;;;;;;16.40;89.00;;;;;;4144295;28;19936;-44
2023/10/25 03:30:33;;;;;;;;;;;16.40;89.90;;;;;;4145935;28;19968;-42
2023/10/25 03:33:15;;;;;;;;;;;16.40;89.20;;;;;;4136651;28;19932;-44
2023/10/25 03:35:56;;;;;;;;;;;16.50;89.10;;;;;;4134607;28;20048;-46
2023/10/25 03:38:37;;;;;;;;;;;16.40;89.10;;;;;;4138299;28;19936;-44
2023/10/25 03:41:18;;;;;;;;;;;16.50;89.10;;;;;;4147191;28;20593;-43
2023/10/25 03:43:59;;;;;;;;;;;16.50;89.30;;;;;;4164628;28;19932;-44
2023/10/25 03:46:40;;;;;;;;;;;16.50;89.00;;;;;;4154155;28;20083;-45
2023/10/25 03:49:23;;;;;;;;;;;16.50;89.00;;;;;;4139744;28;19932;-44
2023/10/25 03:52:04;;;;;;;;;;;16.50;89.00;;;;;;4163757;28;20047;-44
2023/10/25 03:54:45;;;;;;;;;;;16.60;89.90;;;;;;4153504;28;19975;-43
2023/10/25 03:57:26;;;;;;;;;;;16.60;88.90;;;;;;4138340;28;20605;-42
2023/10/25 04:00:09;;;;;;;;;;;16.60;88.90;;;;;;4145652;28;19936;-45
2023/10/25 04:02:53;;;;;;;;;;;16.60;88.80;;;;;;4153148;28;19951;-43
2023/10/25 04:05:35;;;;;;;;;;;16.60;88.70;;;;;;4153964;28;20393;-45
2023/10/25 04:08:16;;;;;;;;;;;16.60;88.50;;;;;;4153486;28;20015;-46
2023/10/25 04:10:57;;;;;;;;;;;16.60;88.30;;;;;;4154140;28;20067;-49
2023/10/25 04:13:38;;;;;;;;;;;16.60;88.30;;;;;;4148585;28;19971;-48
2023/10/25 04:16:19;;;;;;;;;;;16.60;88.40;;;;;;4154024;28;20384;-47
2023/10/25 04:19:00;;;;;;;;;;;16.50;88.50;;;;;;4154197;28;19940;-46
2023/10/25 04:21:42;;;;;;;;;;;16.50;88.90;;;;;;4125182;28;19944;-46
2023/10/25 04:24:23;;;;;;;;;;;16.50;89.00;;;;;;4137914;28;19951;-44
2023/10/25 04:27:03;;;;;;;;;;;16.50;89.70;;;;;;4137989;28;20420;-46
2023/10/25 04:29:44;;;;;;;;;;;16.50;88.50;;;;;;4124129;28;19944;-42
2023/10/25 04:32:25;;;;;;;;;;;16.60;88.50;;;;;;4126753;28;19933;-43
2023/10/25 04:35:06;;;;;;;;;;;16.50;89.10;;;;;;4137061;28;19936;-42
2023/10/25 04:37:48;;;;;;;;;;;16.50;88.50;;;;;;4144310;28;20297;-42
2023/10/25 04:40:28;;;;;;;;;;;16.50;88.80;;;;;;4156575;28;19935;-43
2023/10/25 04:43:09;;;;;;;;;;;16.50;88.80;;;;;;4156517;28;19932;-49
2023/10/25 04:45:51;;;;;;;;;;;16.40;88.70;;;;;;4156224;28;19936;-42
2023/10/25 04:48:32;;;;;;;;;;;16.50;88.80;;;;;;4156562;28;19936;-45
2023/10/25 04:51:14;;;;;;;;;;;16.50;88.60;;;;;;4154399;28;19932;-44
2023/10/25 04:53:56;;;;;;;;;;;16.50;88.50;;;;;;4156206;28;20351;-45
2023/10/25 04:56:36;;;;;;;;;;;16.50;88.50;;;;;;4157407;28;20403;-43
2023/10/25 04:59:17;;;;;;;;;;;16.50;88.40;;;;;;4156967;28;20289;-43
2023/10/25 05:01:58;;;;;;;;;;;16.50;89.30;;;;;;4157602;28;20281;-44
2023/10/25 05:04:39;;;;;;;;;;;16.40;88.50;;;;;;4157085;28;20018;-44
2023/10/25 05:07:20;;;;;;;;;;;16.40;88.50;;;;;;4151740;28;19931;-44
2023/10/25 05:10:03;;;;;;;;;;;16.40;88.70;;;;;;4156711;28;20400;-46
2023/10/25 05:12:45;;;;;;;;;;;16.30;88.90;;;;;;4142481;28;19963;-43
2023/10/25 05:15:28;;;;;;;;;;;16.30;89.00;;;;;;4155020;28;20451;-46
2023/10/25 05:18:09;;;;;;;;;;;16.20;89.20;;;;;;4140331;28;19937;-44
2023/10/25 05:20:55;;;;;;;;;;;16.10;89.30;;;;;;4150517;28;19933;-45
2023/10/25 05:23:36;;;;;;;;;;;16.10;89.40;;;;;;4140413;28;19935;-44
2023/10/25 05:26:19;;;;;;;;;;;16.00;89.60;;;;;;4140188;28;19936;-47
2023/10/25 05:29:00;;;;;;;;;;;16.00;89.70;;;;;;4140025;28;19936;-47
2023/10/25 05:31:42;;;;;;;;;;;16.00;89.80;;;;;;4140445;28;19940;-47
2023/10/25 05:34:23;;;;;;;;;;;15.90;89.90;;;;;;4153521;28;20461;-43
2023/10/25 05:37:04;;;;;;;;;;;15.90;90.00;;;;;;4155828;28;20014;-43
2023/10/25 05:39:45;;;;;;;;;;;15.90;90.10;;;;;;4155625;28;19932;-45
2023/10/25 05:42:28;;;;;;;;;;;15.90;90.10;;;;;;4155770;28;20078;-45
2023/10/25 05:45:10;;;;;;;;;;;16.00;90.00;;;;;;4155074;28;19979;-43
2023/10/25 05:47:51;;;;;;;;;;;16.00;89.90;;;;;;4155359;28;19936;-43
2023/10/25 05:50:32;;;;;;;;;;;16.00;89.70;;;;;;4156585;28;20417;-42
2023/10/25 05:53:13;;;;;;;;;;;16.10;89.50;;;;;;4140530;28;20075;-45
2023/10/25 05:55:54;;;;;;;;;;;16.10;89.10;;;;;;4153086;28;19932;-47
2023/10/25 05:58:37;;;;;;;;;;;16.20;88.80;;;;;;4156670;28;20001;-44
2023/10/25 06:01:20;;;;;;;;;;;16.20;88.70;;;;;;4139772;28;19944;-43
2023/10/25 06:04:04;;;;;;;;;;;16.30;88.60;;;;;;4139854;28;19978;-42
2023/10/25 06:06:46;;;;;;;;;;;16.30;88.50;;;;;;4139448;28;19936;-44
2023/10/25 06:09:27;;;;;;;;;;;16.30;88.30;;;;;;4148711;28;19936;-44
2023/10/25 06:12:08;;;;;;;;;;;16.30;88.20;;;;;;4165769;28;20016;-44
2023/10/25 06:14:51;;;;;;;;;;;16.30;88.20;;;;;;4139336;28;19932;-47
2023/10/25 06:17:32;;;;;;;;;;;16.30;88.00;;;;;;4138486;28;20029;-43
2023/10/25 06:20:19;;;;;;;;;;;16.30;87.80;;;;;;4139161;28;19932;-44
2023/10/25 06:23:00;;;;;;;;;;;16.40;87.80;;;;;;4138559;28;19949;-50
2023/10/25 06:25:41;;;;;;;;;;;16.30;87.80;;;;;;4140529;28;20342;-40
2023/10/25 06:28:21;;;;;;;;;;;16.30;88.80;;;;;;4148964;28;19932;-40
2023/10/25 06:31:05;;;;;;;;;;;16.30;88.10;;;;;;4138699;28;20325;-40
2023/10/25 06:33:45;;;;;;;;;;;16.20;88.10;;;;;;4138365;28;19936;-40
2023/10/25 06:36:27;;;;;;;;;;;16.30;88.20;;;;;;4138256;28;19932;-40
2023/10/25 06:39:08;;;;;;;;;;;16.30;88.10;;;;;;4154257;28;20389;-40
2023/10/25 06:41:49;;;;;;;;;;;16.30;88.10;;;;;;4155028;28;19936;-46
2023/10/25 06:44:30;;;;;;;;;;;16.30;88.10;;;;;;4154024;28;19935;-41
2023/10/25 06:47:13;;;;;;;;;;;16.40;88.00;;;;;;4154223;28;20070;-50
2023/10/25 06:49:54;;;;;;;;;;;16.40;87.70;;;;;;4150930;28;19983;-44
2023/10/25 06:52:35;;;;;;;;;;;16.40;87.50;;;;;;4153935;28;20420;-44
2023/10/25 06:55:16;;;;;;;;;;;16.40;87.50;;;;;;4154108;28;20082;-40
2023/10/25 06:57:57;;;;;;;;;;;16.30;87.40;;;;;;4150613;28;19934;-40
2023/10/25 07:00:39;;;;;;;;;;;16.30;87.50;;;;;;4154318;28;19932;-40
2023/10/25 07:03:22;;;;;;;;;;;16.30;87.60;;;;;;4145905;28;20066;-40
2023/10/25 07:06:04;;;;;;;;;;;16.20;87.50;;;;;;4154558;28;19932;-44
2023/10/25 07:08:45;;;;;;;;;;;16.20;88.40;;;;;;4138839;28;20456;-41
2023/10/25 07:11:26;;;;;;;;;;;16.20;87.70;;;;;;4125394;28;20020;-40
2023/10/25 07:14:06;;;;;;;;;;;16.10;87.60;;;;;;4125791;28;20047;-42
2023/10/25 07:16:47;;;;;;;;;;;16.10;88.60;;;;;;4133667;28;19932;-41
2023/10/25 07:19:30;;;;;;;;;;;16.10;87.80;;;;;;4155443;28;19936;-42
2023/10/25 07:22:11;;;;;;;;;;;16.00;87.80;;;;;;4145609;28;20270;-40
2023/10/25 07:24:52;;;;;;;;;;;16.00;87.90;;;;;;4145722;28;20349;-41
2023/10/25 07:27:36;;;;;;;;;;;16.00;88.10;;;;;;4144756;28;20302;-40
2023/10/25 07:30:17;;;;;;;;;;;15.90;88.20;;;;;;4136831;28;19933;-40
2023/10/25 07:32:58;;;;;;;;;;;15.90;89.00;;;;;;4148692;28;20038;-40
2023/10/25 07:35:40;;;;;;;;;;;15.80;88.10;;;;;;4142643;28;19972;-40
2023/10/25 07:38:21;;;;;;;;;;;15.80;88.20;;;;;;4154696;28;19936;-42
2023/10/25 07:41:02;;;;;;;;;;;15.80;89.20;;;;;;4141050;28;20067;-40
2023/10/25 07:43:43;;;;;;;;;;;15.70;88.30;;;;;;4135211;28;19936;-40
2023/10/25 07:46:25;;;;;;;;;;;15.70;88.40;;;;;;4145222;28;19932;-40
2023/10/25 07:49:07;;;;;;;;;;;15.60;88.50;;;;;;4145983;28;19971;-41
2023/10/25 07:51:49;;;;;;;;;;;15.60;88.60;;;;;;4154365;28;19947;-44
2023/10/25 07:54:31;;;;;;;;;;;15.60;88.70;;;;;;4154184;28;19932;-40
2023/10/25 07:57:12;;;;;;;;;;;15.60;88.90;;;;;;4154836;28;19936;-40
2023/10/25 08:00:14;;;;;;;;;;;15.50;88.90;;;;;;4147582;28;19936;-41
2023/10/25 08:02:55;;;;;;;;;;;15.50;89.00;;;;;;4151757;28;19971;-41
2023/10/25 08:05:36;;;;;;;;;;;15.50;89.20;;;;;;4153489;28;19932;-41
2023/10/25 08:08:18;;;;;;;;;;;15.50;89.20;;;;;;4139674;28;20494;-40
2023/10/25 08:10:59;;;;;;;;;;;15.50;90.00;;;;;;4146301;28;20015;-41
2023/10/25 08:13:42;;;;;;;;;;;15.50;89.30;;;;;;4153997;28;19936;-41
2023/10/25 08:16:23;;;;;;;;;;;15.50;89.30;;;;;;4137056;28;19933;-41
2023/10/25 08:19:03;;;;;;;;;;;15.50;90.00;;;;;;4145089;28;19932;-40
2023/10/25 08:21:44;;;;;;;;;;;15.40;89.30;;;;;;4153547;28;19940;-41
2023/10/25 08:24:26;;;;;;;;;;;15.40;89.30;;;;;;4137867;28;19932;-40
2023/10/25 08:27:07;;;;;;;;;;;15.40;89.40;;;;;;4138274;28;19936;-40
2023/10/25 08:29:48;;;;;;;;;;;15.40;89.40;;;;;;4122765;28;19934;-41
2023/10/25 08:32:28;;;;;;;;;;;15.30;89.50;;;;;;4138000;28;19949;-42
2023/10/25 08:35:10;;;;;;;;;;;15.30;89.60;;;;;;4152785;28;19988;-40
2023/10/25 08:37:51;;;;;;;;;;;15.30;89.60;;;;;;4153561;28;19932;-41
2023/10/25 08:40:33;;;;;;;;;;;15.30;89.80;;;;;;4151068;28;19983;-40
2023/10/25 08:43:16;;;;;;;;;;;15.30;89.90;;;;;;4153243;28;19932;-42
2023/10/25 08:45:57;;;;;;;;;;;15.30;90.30;;;;;;4154129;28;19940;-41
2023/10/25 08:48:38;;;;;;;;;;;15.30;89.90;;;;;;4153953;28;19936;-41
2023/10/25 08:51:19;;;;;;;;;;;15.20;89.80;;;;;;4154015;28;19983;-41
2023/10/25 08:54:00;;;;;;;;;;;15.20;89.90;;;;;;4151102;28;19968;-43
2023/10/25 08:56:46;;;;;;;;;;;15.20;90.00;;;;;;4152489;28;20293;-41
2023/10/25 08:59:27;;;;;;;;;;;15.20;90.40;;;;;;4153934;28;19936;-41
2023/10/25 09:02:09;;;;;;;;;;;15.20;90.00;;;;;;4154065;28;19936;-40
2023/10/25 09:04:59;;;;;;;;;;;15.20;90.00;;;;;;4137817;28;20337;-40
2023/10/25 09:07:40;;;;;;;;;;;15.20;90.10;;;;;;4151877;28;19932;-41
2023/10/25 09:10:23;;;;;;;;;;;15.20;90.50;;;;;;4137421;28;20497;-40
2023/10/25 09:13:12;;;;;;;;;;;15.20;90.10;;;;;;4140069;28;19953;-41
2023/10/25 09:15:57;;;;;;;;;;;15.10;90.10;;;;;;4142654;28;19933;-41
2023/10/25 09:18:39;;;;;;;;;;;15.10;90.20;;;;;;4144831;28;20056;-40
2023/10/25 09:21:26;;;;;;;;;;;15.10;90.20;;;;;;4148363;28;20019;-41
2023/10/25 09:24:09;;;;;;;;;;;15.10;90.20;;;;;;4139543;28;19936;-40
2023/10/25 09:26:54;;;;;;;;;;;15.10;90.30;;;;;;4139656;28;19999;-41
2023/10/25 09:29:36;;;;;;;;;;;15.10;90.30;;;;;;4143489;28;19932;-43
2023/10/25 09:32:18;;;;;;;;;;;15.10;90.40;;;;;;4140403;28;19937;-42
2023/10/25 09:34:58;;;;;;;;;;;15.10;90.40;;;;;;4147951;28;19947;-41
2023/10/25 09:37:39;;;;;;;;;;;15.10;90.40;;;;;;4155573;28;19936;-40
2023/10/25 09:40:21;;;;;;;;;;;15.10;90.40;;;;;;4139528;28;20352;-41
2023/10/25 09:43:04;;;;;;;;;;;15.10;90.50;;;;;;4137224;28;19983;-41
2023/10/25 09:45:46;;;;;;;;;;;15.10;90.50;;;;;;4140362;28;20075;-41
2023/10/25 09:48:28;;;;;;;;;;;15.00;90.50;;;;;;4142265;28;19936;-41
2023/10/25 09:51:14;;;;;;;;;;;15.00;90.50;;;;;;4154665;28;20397;-40
2023/10/25 09:53:58;;;;;;;;;;;15.00;90.90;;;;;;4154602;28;19936;-40
2023/10/25 09:56:40;;;;;;;;;;;15.00;90.50;;;;;;4155457;28;19932;-41
2023/10/25 09:59:21;;;;;;;;;;;15.00;91.00;;;;;;4154664;28;19931;-40
2023/10/25 10:02:07;;;;;;;;;;;15.00;90.60;;;;;;4155621;28;19948;-41
2023/10/25 10:04:53;;;;;;;;;;;15.00;90.60;;;;;;4156136;28;19932;-41
2023/10/25 10:07:37;;;;;;;;;;;15.00;90.70;;;;;;4140538;28;20493;-40
2023/10/25 10:10:21;;;;;;;;;;;15.00;90.70;;;;;;4138789;28;19936;-39
2023/10/25 10:13:14;;;;;;;;;;;15.10;90.80;;;;;;4139355;28;19948;-40
2023/10/25 10:16:01;;;;;;;;;;;15.10;91.20;;;;;;4153540;28;19932;-39
2023/10/25 10:18:46;;;;;;;;;;;15.10;91.20;;;;;;4155527;28;20732;-39
2023/10/25 10:21:27;;;;;;;;;;;15.10;90.80;;;;;;4155621;28;19935;-39
2023/10/25 10:24:28;;;;;;;;;;;15.10;90.80;;;;;;4161203;28;19998;-40
2023/10/25 10:27:09;;;;;;;;;;;15.10;90.80;;;;;;4155586;28;19964;-40
2023/10/25 10:29:50;;;;;;;;;;;15.10;90.80;;;;;;4140024;28;20398;-40
2023/10/25 10:32:34;;;;;;;;;;;15.10;90.90;;;;;;4155369;28;19935;-40
2023/10/25 10:35:22;;;;;;;;;;;15.10;90.90;;;;;;4147538;28;19939;-40
2023/10/25 10:38:03;;;;;;;;;;;15.10;90.90;;;;;;4155177;28;19936;-40
2023/10/25 10:40:49;;;;;;;;;;;15.20;90.90;;;;;;4155669;28;20340;-40
2023/10/25 10:43:30;;;;;;;;;;;15.10;90.90;;;;;;4140705;28;20038;-40
2023/10/25 10:46:11;;;;;;;;;;;15.20;91.00;;;;;;4123298;28;20024;-40
2023/10/25 10:48:55;;;;;;;;;;;15.10;91.00;;;;;;4153873;28;19936;-40
2023/10/25 10:51:38;;;;;;;;;;;15.20;91.10;;;;;;4154842;28;19932;-39
2023/10/25 10:54:19;;;;;;;;;;;15.20;91.10;;;;;;4155296;28;20485;-40
2023/10/25 10:57:00;;;;;;;;;;;15.20;91.10;;;;;;4154456;28;20015;-40
2023/10/25 10:59:45;;;;;;;;;;;15.20;91.20;;;;;;4155541;28;19932;-42
2023/10/25 11:02:26;;;;;;;;;;;15.20;91.20;;;;;;4153947;28;19975;-41
2023/10/25 11:05:07;;;;;;;;;;;15.20;91.20;;;;;;4139945;28;19936;-44
2023/10/25 11:07:49;;;;;;;;;;;15.20;91.20;;;;;;4152777;28;19936;-43
2023/10/25 11:10:30;;;;;;;;;;;15.30;91.30;;;;;;4154710;28;19982;-40
2023/10/25 11:13:11;;;;;;;;;;;15.30;91.50;;;;;;4141000;28;19936;-40
2023/10/25 11:16:01;;;;;;;;;;;15.30;91.40;;;;;;4152945;28;19932;-40
2023/10/25 11:18:42;;;;;;;;;;;15.40;91.40;;;;;;4135167;28;20068;-40
2023/10/25 11:21:22;;;;;;;;;;;15.40;91.50;;;;;;4128027;28;20015;-40
2023/10/25 11:24:07;;;;;;;;;;;15.40;91.50;;;;;;4138807;28;20060;-41
2023/10/25 11:26:48;;;;;;;;;;;15.40;91.50;;;;;;4143284;28;19932;-40
2023/10/25 11:29:31;;;;;;;;;;;15.30;91.50;;;;;;4154016;28;19975;-41
2023/10/25 11:32:14;;;;;;;;;;;15.40;91.50;;;;;;4155290;28;19936;-40
2023/10/25 11:34:56;;;;;;;;;;;15.30;91.50;;;;;;4154455;28;19978;-40
2023/10/25 11:37:43;;;;;;;;;;;15.40;91.50;;;;;;4140051;28;19933;-40
2023/10/25 11:40:38;;;;;;;;;;;15.40;91.50;;;;;;4151631;28;20075;-40
2023/10/25 11:43:20;;;;;;;;;;;15.40;91.50;;;;;;4150631;28;20412;-40
2023/10/25 11:46:03;;;;;;;;;;;15.30;91.50;;;;;;4141564;28;19944;-40
2023/10/25 11:48:44;;;;;;;;;;;15.40;91.90;;;;;;4150595;28;19936;-40
2023/10/25 11:51:25;;;;;;;;;;;15.30;91.50;;;;;;4135726;28;19937;-40
2023/10/25 11:54:06;;;;;;;;;;;15.30;91.50;;;;;;4134650;28;19940;-40
2023/10/25 11:56:59;;;;;;;;;;;15.30;91.50;;;;;;4122775;28;20382;-40
2023/10/25 11:59:40;;;;;;;;;;;15.30;91.90;;;;;;4119637;28;19992;-40
2023/10/25 12:02:22;;;;;;;;;;;15.30;91.50;;;;;;4125126;28;20060;-40
2023/10/25 12:05:03;;;;;;;;;;;15.30;91.50;;;;;;4133148;28;19932;-40
2023/10/25 12:07:44;;;;;;;;;;;15.30;91.50;;;;;;4150538;28;20131;-40
2023/10/25 12:10:27;;;;;;;;;;;15.30;91.50;;;;;;4136435;28;19936;-40
2023/10/25 12:13:09;;;;;;;;;;;15.30;91.50;;;;;;4150831;28;19936;-40
2023/10/25 12:15:51;;;;;;;;;;;15.30;91.60;;;;;;4141540;28;19932;-40
2023/10/25 12:18:33;;;;;;;;;;;15.30;91.60;;;;;;4135673;28;20064;-40
2023/10/25 12:21:14;;;;;;;;;;;15.30;91.60;;;;;;4149158;28;20006;-40
2023/10/25 12:23:55;;;;;;;;;;;15.30;91.50;;;;;;4151183;28;19940;-40
2023/10/25 12:26:36;;;;;;;;;;;15.30;91.50;;;;;;4138946;28;20472;-40
2023/10/25 12:29:18;;;;;;;;;;;15.30;91.50;;;;;;4150808;28;19940;-40
2023/10/25 12:31:59;;;;;;;;;;;15.30;91.50;;;;;;4135984;28;20080;-40
2023/10/25 12:34:40;;;;;;;;;;;15.30;91.50;;;;;;4135724;28;20016;-40
2023/10/25 12:37:21;;;;;;;;;;;15.40;91.50;;;;;;4136119;28;19971;-40
2023/10/25 12:40:04;;;;;;;;;;;15.40;91.50;;;;;;4148958;28;19940;-40
2023/10/25 12:42:44;;;;;;;;;;;15.30;91.40;;;;;;4150059;28;20293;-40
2023/10/25 12:45:27;;;;;;;;;;;15.30;91.50;;;;;;4132390;28;19940;-40
2023/10/25 12:48:08;;;;;;;;;;;15.30;91.40;;;;;;4144232;28;19978;-39
2023/10/25 12:50:49;;;;;;;;;;;15.40;91.40;;;;;;4150836;28;19932;-40
2023/10/25 12:53:30;;;;;;;;;;;15.30;91.80;;;;;;4139377;28;20341;-40
2023/10/25 12:56:11;;;;;;;;;;;15.30;91.40;;;;;;4141755;28;19936;-40
2023/10/25 12:58:52;;;;;;;;;;;15.30;91.40;;;;;;4134188;28;20421;-40
2023/10/25 13:01:34;;;;;;;;;;;15.30;91.50;;;;;;4138578;28;19936;-40
2023/10/25 13:04:15;;;;;;;;;;;15.30;91.40;;;;;;4133450;28;19936;-40
2023/10/25 13:06:56;;;;;;;;;;;15.30;91.40;;;;;;4142985;28;19948;-61
2023/10/25 13:09:36;;;;;;;;;;;15.30;91.40;;;;;;4140834;28;19936;-40
2023/10/25 13:12:17;;;;;;;;;;;15.30;91.50;;;;;;4142839;28;20020;-40
2023/10/25 13:14:58;;;;;;;;;;;15.30;91.50;;;;;;4141711;28;20083;-40
2023/10/25 13:17:40;;;;;;;;;;;15.30;91.50;;;;;;4140975;28;20063;-40
2023/10/25 13:20:21;;;;;;;;;;;15.30;91.50;;;;;;4140865;28;19936;-40
2023/10/25 13:23:02;;;;;;;;;;;15.30;91.50;;;;;;4129462;28;19937;-40
2023/10/25 13:25:43;;;;;;;;;;;15.30;91.50;;;;;;4149376;28;20336;-39
2023/10/25 13:28:24;;;;;;;;;;;15.40;91.60;;;;;;4139377;28;19936;-40
2023/10/25 13:31:05;;;;;;;;;;;15.40;91.50;;;;;;4154005;28;20042;-39
2023/10/25 13:33:47;;;;;;;;;;;15.50;91.60;;;;;;4146808;28;19936;-40
2023/10/25 13:36:29;;;;;;;;;;;15.50;91.50;;;;;;4153699;28;20495;-40
2023/10/25 13:39:11;;;;;;;;;;;15.40;91.40;;;;;;4163451;28;20018;-40
2023/10/25 13:41:52;;;;;;;;;;;15.50;91.40;;;;;;4144185;28;19936;-40
2023/10/25 13:44:33;;;;;;;;;;;15.50;91.40;;;;;;4129099;28;20340;-40
2023/10/25 13:47:15;;;;;;;;;;;15.60;91.40;;;;;;4151317;28;19967;-43
2023/10/25 13:49:56;;;;;;;;;;;15.60;91.40;;;;;;4151819;28;20079;-43
2023/10/25 13:52:37;;;;;;;;;;;15.60;91.30;;;;;;4137581;28;20613;-40
2023/10/25 13:55:20;;;;;;;;;;;15.60;91.30;;;;;;4147064;28;19931;-40
2023/10/25 13:58:00;;;;;;;;;;;15.60;91.30;;;;;;4137541;28;19936;-40
2023/10/25 14:00:41;;;;;;;;;;;15.60;91.30;;;;;;4140507;28;19975;-40
2023/10/25 14:03:24;;;;;;;;;;;15.60;91.30;;;;;;4148020;28;20293;-40
2023/10/25 14:06:06;;;;;;;;;;;15.60;91.30;;;;;;4141194;28;20071;-39
2023/10/25 14:08:47;;;;;;;;;;;15.60;91.30;;;;;;4143832;28;20031;-40
2023/10/25 14:11:27;;;;;;;;;;;15.60;91.30;;;;;;4138224;28;20029;-39
2023/10/25 14:14:08;;;;;;;;;;;15.60;91.30;;;;;;4137865;28;19932;-39
2023/10/25 14:16:49;;;;;;;;;;;15.60;91.40;;;;;;4148390;28;19936;-39
2023/10/25 14:19:30;;;;;;;;;;;15.60;91.40;;;;;;4153489;28;20408;-39
2023/10/25 14:22:12;;;;;;;;;;;15.70;91.40;;;;;;4147030;28;20472;-40
2023/10/25 14:24:53;;;;;;;;;;;15.70;91.50;;;;;;4139111;28;19948;-40
2023/10/25 14:27:34;;;;;;;;;;;15.70;91.40;;;;;;4139601;28;19952;-39
2023/10/25 14:30:15;;;;;;;;;;;15.70;91.50;;;;;;4154030;28;19948;-39
2023/10/25 14:32:56;;;;;;;;;;;15.70;91.60;;;;;;4155135;28;19960;-39
2023/10/25 14:35:38;;;;;;;;;;;15.60;91.60;;;;;;4155558;28;19936;-39
2023/10/25 14:38:21;;;;;;;;;;;15.60;91.50;;;;;;4153292;28;19932;-39
2023/10/25 14:41:02;;;;;;;;;;;15.60;91.50;;;;;;4139170;28;19948;-39
2023/10/25 14:43:43;;;;;;;;;;;15.60;91.50;;;;;;4123632;28;20042;-39
2023/10/25 14:46:24;;;;;;;;;;;15.60;91.50;;;;;;4122713;28;19987;-39
2023/10/25 14:49:06;;;;;;;;;;;15.60;91.50;;;;;;4142024;28;20439;-39
2023/10/25 14:51:49;;;;;;;;;;;15.60;91.60;;;;;;4154309;28;19936;-39
2023/10/25 14:54:31;;;;;;;;;;;15.50;91.50;;;;;;4154419;28;20571;-39
2023/10/25 14:57:12;;;;;;;;;;;15.60;91.70;;;;;;4154672;28;20483;-39
2023/10/25 14:59:55;;;;;;;;;;;15.50;91.70;;;;;;4155032;28;19936;-39
2023/10/25 15:02:37;;;;;;;;;;;15.50;91.70;;;;;;4152302;28;20071;-39
2023/10/25 15:05:18;;;;;;;;;;;15.50;91.70;;;;;;4153786;28;19986;-39
2023/10/25 15:07:59;;;;;;;;;;;15.50;91.80;;;;;;4149109;28;20055;-39
2023/10/25 15:10:41;;;;;;;;;;;15.50;91.80;;;;;;4139106;28;19936;-39
2023/10/25 15:13:22;;;;;;;;;;;15.50;92.20;;;;;;4154199;28;20572;-39
2023/10/25 15:16:03;;;;;;;;;;;15.50;91.90;;;;;;4150804;28;19940;-39
2023/10/25 15:18:44;;;;;;;;;;;15.50;92.00;;;;;;4119618;28;19933;-39
2023/10/25 15:21:28;;;;;;;;;;;15.50;92.40;;;;;;4122751;28;19933;-40
2023/10/25 15:24:09;;;;;;;;;;;15.60;92.10;;;;;;4147670;28;19987;-39
2023/10/25 15:26:51;;;;;;;;;;;15.60;92.10;;;;;;4124194;28;19936;-39
2023/10/25 15:29:31;;;;;;;;;;;15.60;92.00;;;;;;4138477;28;19940;-42
2023/10/25 15:32:12;;;;;;;;;;;15.60;92.00;;;;;;4136601;28;19937;-40
2023/10/25 15:34:53;;;;;;;;;;;15.60;92.10;;;;;;4137662;28;19932;-41
2023/10/25 15:37:34;;;;;;;;;;;15.70;92.00;;;;;;4138323;28;20386;-41
2023/10/25 15:40:16;;;;;;;;;;;15.70;92.00;;;;;;4148847;28;20386;-41